createdAt,value
2022-09-02T00:01:27.507Z,101432.59
2022-09-02T00:03:58.627Z,101429.94
2022-09-02T00:06:26.947Z,101429.09
2022-09-02T00:08:54.798Z,101422.00
2022-09-02T00:11:24.719Z,101422.03
2022-09-02T00:13:52.581Z,101415.81
2022-09-02T00:16:23.159Z,101419.38
2022-09-02T00:18:53.749Z,101422.97
2022-09-02T00:21:22.210Z,101422.13
2022-09-02T00:23:50.832Z,101420.34
2022-09-02T00:26:19.251Z,101423.94
2022-09-02T00:28:51.207Z,101419.47
2022-09-02T00:31:25.715Z,101416.84
2022-09-02T00:33:54.833Z,101415.06
2022-09-02T00:36:22.865Z,101420.41
2022-09-02T00:38:51.132Z,101415.06
2022-09-02T00:41:22.344Z,101410.59
2022-09-02T00:43:53.191Z,101408.84
2022-09-02T00:46:23.372Z,101417.72
2022-09-02T00:48:58.760Z,101422.19
2022-09-02T00:51:29.305Z,101410.63
2022-09-02T00:53:57.052Z,101410.59
2022-09-02T00:56:27.601Z,101404.38
2022-09-02T00:58:57.427Z,101415.94
2022-09-02T01:01:25.535Z,101412.38
2022-09-02T01:03:53.520Z,101410.59
2022-09-02T01:06:27.544Z,101408.84
2022-09-02T01:09:01.164Z,101407.03
2022-09-02T01:11:32.532Z,101404.34
2022-09-02T01:14:01.913Z,101402.56
2022-09-02T01:16:34.688Z,101402.56
2022-09-02T01:19:07.841Z,101400.75
2022-09-02T01:21:37.233Z,101400.75
2022-09-02T01:24:07.544Z,101398.94
2022-09-02T01:26:35.221Z,101391.78
2022-09-02T01:29:02.910Z,101384.66
2022-09-02T01:31:31.061Z,101387.31
2022-09-02T01:33:59.571Z,101387.31
2022-09-02T01:36:27.374Z,101383.75
2022-09-02T01:38:55.225Z,101382.81
2022-09-02T01:41:24.644Z,101380.16
2022-09-02T01:43:52.929Z,101384.59
2022-09-02T01:46:21.127Z,101381.00
2022-09-02T01:48:48.935Z,101381.88
2022-09-02T01:51:18.573Z,101377.44
2022-09-02T01:53:48.715Z,101375.66
2022-09-02T01:56:17.644Z,101380.13
2022-09-02T01:58:46.662Z,101372.13
2022-09-02T02:01:14.623Z,101376.59
2022-09-02T02:03:43.142Z,101371.25
2022-09-02T02:06:12.355Z,101373.06
2022-09-02T02:08:42.080Z,101362.41
2022-09-02T02:11:11.045Z,101367.75
2022-09-02T02:13:39.273Z,101368.69
2022-09-02T02:16:08.921Z,101369.59
2022-09-02T02:18:37.641Z,101367.84
2022-09-02T02:21:05.421Z,101372.31
2022-09-02T02:23:33.183Z,101372.34
2022-09-02T02:26:00.928Z,101377.69
2022-09-02T02:28:28.711Z,101367.06
2022-09-02T02:30:56.491Z,101372.41
2022-09-02T02:33:26.177Z,101377.75
2022-09-02T02:36:06.340Z,101360.88
2022-09-02T02:38:34.816Z,101372.47
2022-09-02T02:41:06.320Z,101369.81
2022-09-02T02:43:34.704Z,101371.63
2022-09-02T02:46:02.544Z,101367.19
2022-09-02T02:48:32.140Z,101366.31
2022-09-02T02:50:59.980Z,101364.56
2022-09-02T02:53:29.738Z,101363.69
2022-09-02T02:56:00.681Z,101358.34
2022-09-02T02:58:28.314Z,101361.91
2022-09-02T03:00:56.715Z,101358.38
2022-09-02T03:03:25.755Z,101356.63
2022-09-02T03:05:57.206Z,101357.50
2022-09-02T03:08:27.722Z,101361.09
2022-09-02T03:10:58.053Z,101359.31
2022-09-02T03:13:29.622Z,101362.88
2022-09-02T03:16:01.099Z,101360.22
2022-09-02T03:18:28.959Z,101354.00
2022-09-02T03:20:59.797Z,101351.34
2022-09-02T03:23:28.160Z,101361.13
2022-09-02T03:25:56.023Z,101350.50
2022-09-02T03:28:36.803Z,101358.50
2022-09-02T03:31:06.878Z,101338.97
2022-09-02T03:33:34.916Z,101350.50
2022-09-02T03:36:06.262Z,101345.19
2022-09-02T03:38:36.030Z,101352.31
2022-09-02T03:41:04.483Z,101342.50
2022-09-02T03:43:32.286Z,101341.63
2022-09-02T03:46:00.495Z,101340.75
2022-09-02T03:48:29.449Z,101337.19
2022-09-02T03:50:57.814Z,101336.31
2022-09-02T03:53:27.037Z,101339.88
2022-09-02T03:55:59.897Z,101336.31
2022-09-02T03:58:28.985Z,101345.19
2022-09-02T04:00:59.073Z,101348.72
2022-09-02T04:03:27.466Z,101346.94
2022-09-02T04:05:59.705Z,101349.63
2022-09-02T04:08:30.796Z,101345.16
2022-09-02T04:11:06.650Z,101354.03
2022-09-02T04:13:34.712Z,101356.69
2022-09-02T04:16:07.792Z,101358.41
2022-09-02T04:18:38.529Z,101357.53
2022-09-02T04:21:07.075Z,101361.09
2022-09-02T04:23:38.609Z,101358.41
2022-09-02T04:26:07.317Z,101353.06
2022-09-02T04:28:35.623Z,101359.25
2022-09-02T04:31:06.534Z,101358.38
2022-09-02T04:33:35.079Z,101356.59
2022-09-02T04:36:05.855Z,101352.13
2022-09-02T04:38:34.555Z,101352.16
2022-09-02T04:41:08.582Z,101356.56
2022-09-02T04:43:37.469Z,101353.00
2022-09-02T04:46:07.140Z,101352.13
2022-09-02T04:48:37.221Z,101345.91
2022-09-02T04:51:06.894Z,101345.03
2022-09-02T04:53:35.828Z,101352.06
2022-09-02T04:56:07.264Z,101345.88
2022-09-02T04:58:37.562Z,101347.66
2022-09-02T05:01:07.569Z,101345.88
2022-09-02T05:03:35.968Z,101347.66
2022-09-02T05:06:06.275Z,101352.09
2022-09-02T05:08:36.935Z,101350.31
2022-09-02T05:11:08.071Z,101355.63
2022-09-02T05:13:36.036Z,101357.41
2022-09-02T05:16:04.813Z,101352.97
2022-09-02T05:18:33.033Z,101356.53
2022-09-02T05:21:06.480Z,101360.06
2022-09-02T05:23:35.700Z,101353.00
2022-09-02T05:26:04.831Z,101358.31
2022-09-02T05:28:35.583Z,101355.66
2022-09-02T05:31:06.085Z,101353.88
2022-09-02T05:33:37.270Z,101360.13
2022-09-02T05:36:06.675Z,101353.03
2022-09-02T05:38:35.175Z,101348.59
2022-09-02T05:41:08.148Z,101352.16
2022-09-02T05:43:38.647Z,101354.84
2022-09-02T05:46:08.206Z,101355.72
2022-09-02T05:48:56.034Z,101353.97
2022-09-02T05:51:25.634Z,101353.97
2022-09-02T05:53:55.254Z,101359.31
2022-09-02T05:56:23.711Z,101360.25
2022-09-02T05:58:53.517Z,101357.56
2022-09-02T06:01:21.444Z,101349.59
2022-09-02T06:03:50.461Z,101357.59
2022-09-02T06:06:18.630Z,101351.38
2022-09-02T06:08:46.583Z,101352.28
2022-09-02T06:11:14.491Z,101348.75
2022-09-02T06:13:43.894Z,101349.63
2022-09-02T06:16:17.102Z,101356.72
2022-09-02T06:18:49.059Z,101354.06
2022-09-02T06:21:17.724Z,101357.63
2022-09-02T06:23:49.532Z,101357.59
2022-09-02T06:26:19.090Z,101360.28
2022-09-02T06:28:47.547Z,101356.75
2022-09-02T06:31:21.200Z,101358.50
2022-09-02T06:33:54.099Z,101346.06
2022-09-02T06:36:28.149Z,101351.41
2022-09-02T06:38:59.617Z,101348.72
2022-09-02T06:41:30.878Z,101358.50
2022-09-02T06:44:03.937Z,101351.38
2022-09-02T06:46:40.914Z,101355.78
2022-09-02T06:49:10.263Z,101354.91
2022-09-02T06:51:41.078Z,101359.34
2022-09-02T06:54:14.023Z,101362.88
2022-09-02T06:56:48.593Z,101363.75
2022-09-02T06:59:19.860Z,101353.06
2022-09-02T07:01:52.803Z,101356.59
2022-09-02T07:04:40.706Z,101361.91
2022-09-02T07:07:12.080Z,101355.69
2022-09-02T07:10:00.162Z,101361.88
2022-09-02T07:12:28.543Z,101362.75
2022-09-02T07:15:03.966Z,101360.03
2022-09-02T07:17:40.279Z,101354.69
2022-09-02T07:20:20.264Z,101359.06
2022-09-02T07:22:53.029Z,101356.34
2022-09-02T07:25:22.202Z,101359.84
2022-09-02T07:27:52.238Z,101368.69
2022-09-02T07:30:20.702Z,101358.81
2022-09-02T07:32:53.706Z,101356.94
2022-09-02T07:35:24.070Z,101369.34
2022-09-02T07:37:52.915Z,101361.31
2022-09-02T07:40:23.319Z,101365.69
2022-09-02T07:42:52.328Z,101366.53
2022-09-02T07:45:21.870Z,101369.13
2022-09-02T07:47:50.555Z,101365.47
2022-09-02T07:50:22.659Z,101360.94
2022-09-02T07:52:54.646Z,101363.50
2022-09-02T07:55:23.721Z,101365.16
2022-09-02T07:57:53.996Z,101362.38
2022-09-02T08:00:27.433Z,101366.66
2022-09-02T08:02:57.094Z,101358.50
2022-09-02T08:05:35.391Z,101359.22
2022-09-02T08:08:04.289Z,101358.16
2022-09-02T08:10:36.469Z,101360.66
2022-09-02T08:13:06.447Z,101364.94
2022-09-02T08:15:36.168Z,101355.78
2022-09-02T08:18:05.570Z,101351.09
2022-09-02T08:20:35.028Z,101354.38
2022-09-02T08:23:11.553Z,101351.44
2022-09-02T08:25:41.201Z,101353.75
2022-09-02T08:28:09.054Z,101362.38
2022-09-02T08:30:36.929Z,101353.94
2022-09-02T08:33:04.791Z,101352.63
2022-09-02T08:35:33.970Z,101345.06
2022-09-02T08:38:02.352Z,101334.81
2022-09-02T08:40:40.206Z,101340.66
2022-09-02T08:43:24.814Z,101339.28
2022-09-02T08:45:54.446Z,101346.06
2022-09-02T08:48:33.362Z,101335.72
2022-09-02T08:51:08.454Z,101335.28
2022-09-02T08:53:46.569Z,101341.00
2022-09-02T08:56:18.110Z,101336.84
2022-09-02T08:58:50.129Z,101330.03
2022-09-02T09:01:26.367Z,101332.19
2022-09-02T09:04:10.447Z,101329.00
2022-09-02T09:06:52.472Z,101316.06
2022-09-02T09:09:29.850Z,101316.28
2022-09-02T09:12:04.782Z,101313.81
2022-09-02T09:14:38.208Z,101306.97
2022-09-02T09:17:12.694Z,101311.84
2022-09-02T09:19:48.861Z,101306.91
2022-09-02T09:22:20.819Z,101303.09
2022-09-02T09:24:50.744Z,101298.97
2022-09-02T09:27:20.839Z,101304.50
2022-09-02T09:29:49.595Z,101284.09
2022-09-02T09:32:26.015Z,101293.53
2022-09-02T09:35:01.784Z,101285.94
2022-09-02T09:37:36.086Z,101287.38
2022-09-02T09:40:24.652Z,101277.78
2022-09-02T09:42:57.171Z,101276.44
2022-09-02T09:45:31.240Z,101275.91
2022-09-02T09:48:16.421Z,101280.81
2022-09-02T09:50:44.524Z,101271.56
2022-09-02T09:53:20.143Z,101275.03
2022-09-02T09:55:54.099Z,101269.09
2022-09-02T09:58:23.854Z,101266.63
2022-09-02T10:00:56.398Z,101273.41
2022-09-02T10:03:32.851Z,101269.47
2022-09-02T10:06:19.354Z,101260.84
2022-09-02T10:08:54.873Z,101255.53
2022-09-02T10:11:25.708Z,101251.06
2022-09-02T10:13:59.964Z,101251.59
2022-09-02T10:16:45.247Z,101258.78
2022-09-02T10:19:25.456Z,101248.31
2022-09-02T10:22:13.434Z,101258.31
2022-09-02T10:24:57.293Z,101259.53
2022-09-02T10:27:32.764Z,101261.38
2022-09-02T10:30:07.122Z,101250.47
2022-09-02T10:32:59.702Z,101242.50
2022-09-02T10:35:40.370Z,101253.41
2022-09-02T10:38:17.864Z,101249.75
2022-09-02T10:40:50.798Z,101243.56
2022-09-02T10:43:29.145Z,101235.09
2022-09-02T10:46:00.624Z,101241.44
2022-09-02T10:48:39.164Z,101240.19
2022-09-02T10:51:16.591Z,101237.09
2022-09-02T10:53:55.965Z,101230.59
2022-09-02T10:56:28.133Z,101235.44
2022-09-02T10:59:01.123Z,101237.00
2022-09-02T11:01:33.593Z,101232.22
2022-09-02T11:04:09.996Z,101229.84
2022-09-02T11:07:01.414Z,101238.88
2022-09-02T11:09:34.937Z,101231.38
2022-09-02T11:12:11.088Z,101235.28
2022-09-02T11:15:03.786Z,101235.59
2022-09-02T11:17:37.748Z,101231.28
2022-09-02T11:20:14.905Z,101219.75
2022-09-02T11:22:50.951Z,101220.69
2022-09-02T11:25:26.441Z,101222.56
2022-09-02T11:28:04.933Z,101209.53
2022-09-02T11:30:41.142Z,101210.56
2022-09-02T11:33:17.320Z,101199.31
2022-09-02T11:35:45.694Z,101206.66
2022-09-02T11:38:30.947Z,101207.41
2022-09-02T11:41:36.666Z,101196.56
2022-09-02T11:44:27.036Z,101201.72
2022-09-02T11:47:10.301Z,101197.66
2022-09-02T11:49:58.094Z,101193.19
2022-09-02T11:52:34.797Z,101182.13
2022-09-02T11:55:11.248Z,101187.97
2022-09-02T11:57:41.310Z,101193.53
2022-09-02T12:00:14.946Z,101192.09
2022-09-02T12:02:45.862Z,101184.28
2022-09-02T12:06:06.299Z,101194.53
2022-09-02T12:09:10.578Z,101188.78
2022-09-02T12:11:55.171Z,101176.44
2022-09-02T12:15:03.680Z,101173.22
2022-09-02T12:17:42.149Z,101171.66
2022-09-02T12:20:12.615Z,101168.03
2022-09-02T12:22:42.574Z,101162.56
2022-09-02T12:25:38.391Z,101162.78
2022-09-02T12:28:24.209Z,101170.19
2022-09-02T12:31:17.756Z,101160.88
2022-09-02T12:33:52.562Z,101156.75
2022-09-02T12:36:47.956Z,101164.63
2022-09-02T12:39:52.511Z,101146.97
2022-09-02T12:42:27.312Z,101149.16
2022-09-02T12:45:06.043Z,101148.66
2022-09-02T12:47:44.999Z,101152.31
2022-09-02T12:50:26.559Z,101142.94
2022-09-02T12:53:11.857Z,101148.13
2022-09-02T12:55:41.669Z,101135.03
2022-09-02T12:58:11.345Z,101134.22
2022-09-02T13:00:58.769Z,101131.75
2022-09-02T13:03:40.305Z,101122.34
2022-09-02T13:06:16.014Z,101132.91
2022-09-02T13:09:24.119Z,101120.69
2022-09-02T13:12:19.941Z,101131.88
2022-09-02T13:14:59.627Z,101127.63
2022-09-02T13:17:42.641Z,101126.25
2022-09-02T13:20:46.558Z,101127.06
2022-09-02T13:23:54.321Z,101105.97
2022-09-02T13:26:53.757Z,101108.69
2022-09-02T13:29:53.696Z,101112.31
2022-09-02T13:32:24.784Z,101116.88
2022-09-02T13:34:56.088Z,101106.78
2022-09-02T13:37:36.600Z,101099.88
2022-09-02T13:40:18.370Z,101101.91
2022-09-02T13:42:50.054Z,101093.28
2022-09-02T13:45:19.715Z,101091.69
2022-09-02T13:47:49.498Z,101088.50
2022-09-02T13:50:20.380Z,101091.13
2022-09-02T13:55:47.936Z,101094.06
2022-09-02T13:58:35.365Z,101092.56
2022-09-02T14:01:26.115Z,101102.34
2022-09-02T14:03:56.981Z,101093.94
2022-09-02T14:06:28.047Z,101091.44
2022-09-02T14:08:59.846Z,101092.09
2022-09-02T14:11:31.637Z,101091.72
2022-09-02T14:13:59.553Z,101093.19
2022-09-02T14:16:33.983Z,101083.72
2022-09-02T14:19:10.465Z,101081.22
2022-09-02T14:21:45.057Z,101079.38
2022-09-02T14:24:13.973Z,101087.75
2022-09-02T14:26:46.976Z,101077.47
2022-09-02T14:29:17.013Z,101083.00
2022-09-02T14:31:45.522Z,101067.56
2022-09-02T14:34:32.960Z,101083.00
2022-09-02T14:37:00.811Z,101079.50
2022-09-02T14:39:28.639Z,101069.00
2022-09-02T14:41:57.897Z,101072.03
2022-09-02T14:44:32.713Z,101061.91
2022-09-02T14:47:02.682Z,101061.72
2022-09-02T14:49:34.149Z,101063.09
2022-09-02T14:52:04.356Z,101072.03
2022-09-02T14:54:38.412Z,101068.31
2022-09-02T14:57:28.378Z,101077.06
2022-09-02T14:59:57.949Z,101075.13
2022-09-02T15:02:33.111Z,101067.28
2022-09-02T15:05:07.769Z,101069.31
2022-09-02T15:07:35.435Z,101068.56
2022-09-02T15:10:04.239Z,101070.09
2022-09-02T15:12:35.093Z,101069.88
2022-09-02T15:15:02.712Z,101061.44
2022-09-02T15:17:31.051Z,101055.09
2022-09-02T15:19:58.693Z,101059.16
2022-09-02T15:22:27.251Z,101058.81
2022-09-02T15:24:55.093Z,101062.63
2022-09-02T15:27:22.748Z,101064.63
2022-09-02T15:29:51.721Z,101056.53
2022-09-02T15:32:19.765Z,101062.94
2022-09-02T15:34:47.416Z,101064.81
2022-09-02T15:37:15.276Z,101061.97
2022-09-02T15:39:43.083Z,101051.03
2022-09-02T15:42:10.905Z,101048.97
2022-09-02T15:44:38.606Z,101048.94
2022-09-02T15:47:07.783Z,101052.47
2022-09-02T15:49:35.538Z,101050.03
2022-09-02T15:52:03.748Z,101043.63
2022-09-02T15:54:31.987Z,101047.06
2022-09-02T15:57:00.288Z,101045.25
2022-09-02T15:59:28.175Z,101047.75
2022-09-02T16:01:58.766Z,101039.47
2022-09-02T16:04:29.303Z,101040.44
2022-09-02T16:06:57.480Z,101042.59
2022-09-02T16:09:25.176Z,101039.50
2022-09-02T16:11:56.136Z,101042.88
2022-09-02T16:14:25.529Z,101045.66
2022-09-02T16:16:57.113Z,101038.34
2022-09-02T16:19:30.028Z,101043.50
2022-09-02T16:22:00.167Z,101035.84
2022-09-02T16:24:28.223Z,101033.50
2022-09-02T16:26:55.972Z,101038.28
2022-09-02T16:29:24.117Z,101030.50
2022-09-02T16:32:07.829Z,101035.34
2022-09-02T16:34:40.862Z,101023.09
2022-09-02T16:37:09.869Z,101029.75
2022-09-02T16:39:37.610Z,101017.31
2022-09-02T16:42:05.967Z,101023.03
2022-09-02T16:44:35.798Z,101019.66
2022-09-02T16:47:03.531Z,101015.31
2022-09-02T16:49:32.096Z,101017.50
2022-09-02T16:51:59.805Z,101020.50
2022-09-02T16:54:31.123Z,101014.53
2022-09-02T16:57:01.432Z,101008.44
2022-09-02T16:59:31.404Z,101011.38
2022-09-02T17:01:59.300Z,101013.47
2022-09-02T17:04:27.032Z,101004.78
2022-09-02T17:06:54.622Z,101010.44
2022-09-02T17:09:22.217Z,101007.13
2022-09-02T17:11:54.210Z,101007.44
2022-09-02T17:14:22.242Z,101002.28
2022-09-02T17:16:52.202Z,101011.50
2022-09-02T17:19:22.531Z,101004.56
2022-09-02T17:21:51.882Z,101007.53
2022-09-02T17:24:21.868Z,101012.28
2022-09-02T17:26:55.774Z,101012.47
2022-09-02T17:29:48.017Z,101010.00
2022-09-02T17:32:13.621Z,101001.19
2022-09-02T17:34:41.307Z,101002.28
2022-09-02T17:37:09.043Z,101001.59
2022-09-02T17:39:36.800Z,100996.41
2022-09-02T17:42:06.920Z,100993.00
2022-09-02T17:44:38.310Z,100994.06
2022-09-02T17:47:07.951Z,100997.88
2022-09-02T17:49:37.256Z,101004.41
2022-09-02T17:52:05.491Z,100994.81
2022-09-02T17:54:33.378Z,100999.53
2022-09-02T17:57:21.025Z,101000.75
2022-09-02T18:00:02.369Z,100998.28
2022-09-02T18:03:02.023Z,101011.16
2022-09-02T18:05:39.314Z,101000.63
2022-09-02T18:08:12.798Z,101011.66
2022-09-02T18:10:47.504Z,101007.41
2022-09-02T18:13:25.969Z,100998.69
2022-09-02T18:15:59.821Z,101006.97
2022-09-02T18:18:28.263Z,101003.50
2022-09-02T18:21:03.617Z,101006.38
2022-09-02T18:23:51.638Z,101013.75
2022-09-02T18:26:30.232Z,101010.34
2022-09-02T18:29:14.638Z,101017.81
2022-09-02T18:31:50.506Z,101018.81
2022-09-02T18:34:35.831Z,101027.09
2022-09-02T18:37:13.477Z,101029.03
2022-09-02T18:39:55.672Z,101029.13
2022-09-02T18:42:34.268Z,101023.94
2022-09-02T18:45:10.734Z,101033.00
2022-09-02T18:47:47.155Z,101026.84
2022-09-02T18:50:44.909Z,101025.09
2022-09-02T18:53:14.771Z,101032.47
2022-09-02T18:55:45.381Z,101037.09
2022-09-02T18:58:20.425Z,101036.28
2022-09-02T19:00:54.978Z,101047.19
2022-09-02T19:03:23.313Z,101050.94
2022-09-02T19:05:50.997Z,101040.22
2022-09-02T19:08:33.177Z,101042.09
2022-09-02T19:11:03.771Z,101044.03
2022-09-02T19:13:40.870Z,101047.69
2022-09-02T19:16:10.004Z,101043.34
2022-09-02T19:18:37.685Z,101043.47
2022-09-02T19:21:05.894Z,101039.94
2022-09-02T19:23:33.903Z,101049.06
2022-09-02T19:26:01.657Z,101048.25
2022-09-02T19:28:30.159Z,101048.41
2022-09-02T19:31:01.340Z,101039.56
2022-09-02T19:33:32.403Z,101048.66
2022-09-02T19:36:00.197Z,101054.09
2022-09-02T19:38:29.059Z,101049.81
2022-09-02T19:40:56.924Z,101052.59
2022-09-02T19:43:24.665Z,101050.09
2022-09-02T19:45:52.405Z,101049.34
2022-09-02T19:48:20.684Z,101050.34
2022-09-02T19:50:49.851Z,101050.50
2022-09-02T19:53:20.716Z,101051.47
2022-09-02T19:55:48.693Z,101055.19
2022-09-02T19:58:16.311Z,101066.97
2022-09-02T20:00:44.377Z,101060.72
2022-09-02T20:03:13.097Z,101061.78
2022-09-02T20:05:41.790Z,101072.59
2022-09-02T20:08:10.752Z,101065.50
2022-09-02T20:10:39.404Z,101060.22
2022-09-02T20:13:09.312Z,101072.88
2022-09-02T20:15:38.399Z,101070.25
2022-09-02T20:18:11.335Z,101064.94
2022-09-02T20:20:42.240Z,101067.72
2022-09-02T20:23:16.984Z,101072.28
2022-09-02T20:25:57.436Z,101075.09
2022-09-02T20:28:31.355Z,101075.16
2022-09-02T20:31:10.914Z,101067.22
2022-09-02T20:33:48.052Z,101078.06
2022-09-02T20:36:26.637Z,101081.72
2022-09-02T20:39:18.156Z,101086.31
2022-09-02T20:41:55.182Z,101082.84
2022-09-02T20:44:50.095Z,101080.19
2022-09-02T20:47:32.588Z,101084.75
2022-09-02T20:50:22.533Z,101080.34
2022-09-02T20:53:02.347Z,101080.50
2022-09-02T20:55:38.251Z,101076.94
2022-09-02T20:58:18.720Z,101079.72
2022-09-02T21:01:02.934Z,101084.22
2022-09-02T21:03:41.011Z,101079.88
2022-09-02T21:06:11.874Z,101074.59
2022-09-02T21:08:47.632Z,101080.91
2022-09-02T21:11:18.420Z,101082.78
2022-09-02T21:13:52.403Z,101081.09
2022-09-02T21:16:26.163Z,101082.94
2022-09-02T21:19:04.360Z,101077.69
2022-09-02T21:21:41.449Z,101081.38
2022-09-02T21:24:14.756Z,101076.09
2022-09-02T21:26:49.167Z,101078.91
2022-09-02T21:29:22.779Z,101069.22
2022-09-02T21:31:57.944Z,101073.81
2022-09-02T21:34:29.414Z,101075.75
2022-09-02T21:36:59.929Z,101072.31
2022-09-02T21:39:32.161Z,101076.84
2022-09-02T21:42:15.451Z,101079.66
2022-09-02T21:45:01.492Z,101075.31
2022-09-02T21:47:35.298Z,101078.16
2022-09-02T21:50:09.574Z,101085.41
2022-09-02T21:52:51.109Z,101084.66
2022-09-02T21:55:35.257Z,101081.13
2022-09-02T21:58:22.105Z,101081.31
2022-09-02T22:00:57.071Z,101076.94
2022-09-02T22:03:37.074Z,101083.34
2022-09-02T22:06:13.080Z,101076.34
2022-09-02T22:08:50.416Z,101080.94
2022-09-02T22:11:23.810Z,101069.41
2022-09-02T22:13:52.861Z,101074.00
2022-09-02T22:16:32.549Z,101075.00
2022-09-02T22:19:02.573Z,101076.94
2022-09-02T22:21:38.064Z,101069.03
2022-09-02T22:24:06.791Z,101075.34
2022-09-02T22:26:43.524Z,101075.44
2022-09-02T22:29:29.015Z,101076.50
2022-09-02T22:32:00.501Z,101082.88
2022-09-02T22:34:31.135Z,101077.59
2022-09-02T22:37:03.783Z,101071.47
2022-09-02T22:39:38.466Z,101071.56
2022-09-02T22:42:12.883Z,101070.78
2022-09-02T22:45:06.084Z,101064.66
2022-09-02T22:47:54.916Z,101069.22
2022-09-02T22:50:50.116Z,101072.91
2022-09-02T22:53:18.052Z,101068.59
2022-09-02T22:55:58.807Z,101066.03
2022-09-02T22:58:38.762Z,101067.03
2022-09-02T23:01:16.349Z,101072.50
2022-09-02T23:03:56.747Z,101071.72
2022-09-02T23:06:27.886Z,101062.88
2022-09-02T23:08:56.496Z,101066.56
2022-09-02T23:11:31.846Z,101074.69
2022-09-02T23:14:10.076Z,101060.50
2022-09-02T23:16:55.101Z,101055.25
2022-09-02T23:19:34.888Z,101057.13
2022-09-02T23:22:12.149Z,101059.00
2022-09-02T23:24:47.572Z,101051.94
2022-09-02T23:27:27.026Z,101055.59
2022-09-02T23:29:55.726Z,101054.78
2022-09-02T23:32:46.369Z,101062.00
2022-09-02T23:35:27.096Z,101058.53
2022-09-02T23:38:09.465Z,101053.28
2022-09-02T23:40:40.747Z,101056.03
2022-09-02T23:43:09.976Z,101059.66
2022-09-02T23:45:37.899Z,101053.47
2022-09-02T23:48:24.642Z,101057.16
2022-09-02T23:51:06.355Z,101059.00
2022-09-02T23:53:39.328Z,101047.44
2022-09-02T23:56:22.277Z,101053.72
2022-09-02T23:59:09.274Z,101049.28
